createdAt,value
2022-09-09T00:00:23.977Z,0.00
2022-09-09T00:01:24.006Z,0.00
2022-09-09T00:02:24.077Z,0.00
2022-09-09T00:03:24.081Z,0.00
2022-09-09T00:04:23.927Z,0.00
2022-09-09T00:05:23.945Z,0.00
2022-09-09T00:06:23.911Z,0.00
2022-09-09T00:07:23.909Z,0.00
2022-09-09T00:08:23.889Z,0.00
2022-09-09T00:09:23.889Z,0.00
2022-09-09T00:10:23.878Z,0.00
2022-09-09T00:11:27.082Z,0.00
2022-09-09T00:12:23.888Z,0.00
2022-09-09T00:13:23.841Z,0.00
2022-09-09T00:14:23.821Z,0.00
2022-09-09T00:15:23.826Z,0.00
2022-09-09T00:16:23.878Z,0.00
2022-09-09T00:17:23.820Z,0.00
2022-09-09T00:18:23.806Z,0.00
2022-09-09T00:19:23.783Z,0.00
2022-09-09T00:20:23.752Z,0.00
2022-09-09T00:21:23.764Z,0.00
2022-09-09T00:22:23.786Z,0.00
2022-09-09T00:23:23.741Z,0.00
2022-09-09T00:24:23.729Z,0.00
2022-09-09T00:25:23.947Z,0.00
2022-09-09T00:26:23.713Z,0.00
2022-09-09T00:27:23.777Z,0.00
2022-09-09T00:28:23.695Z,0.00
2022-09-09T00:29:23.685Z,0.00
2022-09-09T00:30:23.670Z,0.00
2022-09-09T00:31:23.727Z,0.00
2022-09-09T00:32:23.641Z,0.00
2022-09-09T00:33:23.675Z,0.00
2022-09-09T00:34:23.610Z,0.00
2022-09-09T00:35:23.608Z,0.00
2022-09-09T00:36:23.593Z,0.00
2022-09-09T00:37:23.893Z,0.00
2022-09-09T00:38:23.666Z,0.00
2022-09-09T00:39:23.638Z,0.00
2022-09-09T00:40:23.574Z,0.00
2022-09-09T00:41:23.583Z,0.00
2022-09-09T00:42:23.738Z,0.00
2022-09-09T00:43:23.528Z,0.00
2022-09-09T00:44:23.516Z,0.00
2022-09-09T00:45:23.570Z,0.00
2022-09-09T00:46:23.557Z,0.00
2022-09-09T00:47:23.506Z,0.00
2022-09-09T00:48:23.514Z,0.00
2022-09-09T00:49:23.460Z,0.00
2022-09-09T00:50:23.554Z,0.00
2022-09-09T00:51:23.500Z,0.00
2022-09-09T00:52:23.428Z,0.00
2022-09-09T00:53:23.427Z,0.00
2022-09-09T00:54:23.430Z,0.00
2022-09-09T00:55:23.410Z,0.00
2022-09-09T00:56:23.410Z,0.00
2022-09-09T00:57:23.486Z,0.00
2022-09-09T00:58:23.410Z,0.00
2022-09-09T00:59:27.776Z,0.00
2022-09-09T01:00:23.365Z,0.00
2022-09-09T01:01:23.440Z,0.00
2022-09-09T01:02:23.392Z,0.00
2022-09-09T01:03:23.323Z,0.00
2022-09-09T01:04:23.307Z,0.00
2022-09-09T01:05:23.300Z,0.00
2022-09-09T01:06:23.290Z,0.00
2022-09-09T01:07:23.291Z,0.00
2022-09-09T01:08:23.271Z,0.00
2022-09-09T01:09:23.248Z,0.00
2022-09-09T01:10:23.260Z,0.00
2022-09-09T01:11:23.218Z,0.00
2022-09-09T01:12:23.241Z,0.00
2022-09-09T01:13:23.211Z,0.00
2022-09-09T01:14:23.222Z,0.00
2022-09-09T01:15:23.195Z,0.00
2022-09-09T01:16:23.444Z,0.00
2022-09-09T01:17:23.209Z,0.00
2022-09-09T01:18:23.184Z,0.00
2022-09-09T01:19:23.201Z,0.00
2022-09-09T01:20:23.129Z,0.00
2022-09-09T01:21:23.127Z,0.00
2022-09-09T01:22:23.138Z,0.00
2022-09-09T01:23:23.099Z,0.00
2022-09-09T01:24:23.107Z,0.00
2022-09-09T01:25:23.078Z,0.00
2022-09-09T01:26:23.080Z,0.00
2022-09-09T01:27:23.090Z,0.00
2022-09-09T01:28:23.090Z,0.00
2022-09-09T01:29:23.048Z,0.00
2022-09-09T01:30:23.107Z,0.00
2022-09-09T01:31:23.110Z,0.00
2022-09-09T01:32:23.045Z,0.00
2022-09-09T01:33:22.998Z,0.00
2022-09-09T01:34:23.005Z,0.00
2022-09-09T01:35:22.971Z,0.00
2022-09-09T01:36:22.967Z,0.00
2022-09-09T01:37:22.988Z,0.00
2022-09-09T01:38:23.115Z,0.00
2022-09-09T01:39:22.945Z,0.00
2022-09-09T01:40:22.944Z,0.00
2022-09-09T01:41:22.918Z,0.00
2022-09-09T01:42:22.917Z,0.00
2022-09-09T01:43:22.895Z,0.00
2022-09-09T01:44:22.911Z,0.00
2022-09-09T01:45:22.900Z,0.00
2022-09-09T01:46:22.925Z,0.00
2022-09-09T01:47:22.861Z,0.00
2022-09-09T01:48:22.906Z,0.00
2022-09-09T01:49:22.827Z,0.00
2022-09-09T01:50:22.847Z,0.00
2022-09-09T01:51:22.816Z,0.00
2022-09-09T01:52:22.897Z,0.00
2022-09-09T01:53:22.795Z,0.00
2022-09-09T01:54:22.792Z,0.00
2022-09-09T01:55:22.786Z,0.00
2022-09-09T01:56:22.773Z,0.00
2022-09-09T01:57:22.779Z,0.00
2022-09-09T01:58:22.757Z,0.00
2022-09-09T01:59:22.725Z,0.00
2022-09-09T02:00:22.720Z,0.00
2022-09-09T02:01:22.795Z,0.00
2022-09-09T02:02:22.735Z,0.00
2022-09-09T02:03:22.696Z,0.00
2022-09-09T02:04:22.705Z,0.00
2022-09-09T02:05:22.671Z,0.00
2022-09-09T02:06:22.692Z,0.00
2022-09-09T02:07:22.687Z,0.00
2022-09-09T02:08:22.655Z,0.00
2022-09-09T02:09:22.669Z,0.00
2022-09-09T02:10:22.631Z,0.00
2022-09-09T02:11:22.613Z,0.00
2022-09-09T02:12:22.615Z,0.00
2022-09-09T02:13:22.597Z,0.00
2022-09-09T02:14:22.595Z,0.00
2022-09-09T02:15:22.562Z,0.00
2022-09-09T02:16:22.644Z,0.00
2022-09-09T02:17:22.552Z,0.00
2022-09-09T02:18:22.579Z,0.00
2022-09-09T02:19:22.515Z,0.00
2022-09-09T02:20:22.511Z,0.00
2022-09-09T02:21:22.517Z,0.00
2022-09-09T02:22:22.508Z,0.00
2022-09-09T02:23:22.555Z,0.00
2022-09-09T02:24:22.517Z,0.00
2022-09-09T02:25:22.463Z,0.00
2022-09-09T02:26:22.526Z,0.00
2022-09-09T02:27:22.456Z,0.00
2022-09-09T02:28:22.460Z,0.00
2022-09-09T02:29:22.422Z,0.00
2022-09-09T02:30:22.552Z,0.00
2022-09-09T02:31:22.409Z,0.00
2022-09-09T02:32:22.398Z,0.00
2022-09-09T02:33:22.392Z,0.00
2022-09-09T02:34:22.372Z,0.00
2022-09-09T02:35:22.349Z,0.00
2022-09-09T02:36:22.340Z,0.00
2022-09-09T02:37:22.334Z,0.00
2022-09-09T02:38:22.356Z,0.00
2022-09-09T02:39:22.314Z,0.00
2022-09-09T02:40:22.306Z,0.00
2022-09-09T02:41:22.301Z,0.00
2022-09-09T02:42:22.342Z,0.00
2022-09-09T02:43:22.297Z,0.00
2022-09-09T02:44:22.257Z,0.00
2022-09-09T02:45:22.264Z,0.00
2022-09-09T02:46:22.351Z,0.00
2022-09-09T02:47:22.228Z,0.00
2022-09-09T02:48:22.227Z,0.00
2022-09-09T02:49:22.225Z,0.00
2022-09-09T02:50:22.206Z,0.00
2022-09-09T02:51:22.272Z,0.00
2022-09-09T02:52:22.206Z,0.00
2022-09-09T02:53:22.192Z,0.00
2022-09-09T02:54:22.179Z,0.00
2022-09-09T02:55:22.154Z,0.00
2022-09-09T02:56:23.791Z,0.00
2022-09-09T02:57:22.129Z,0.00
2022-09-09T02:58:22.123Z,0.00
2022-09-09T02:59:22.148Z,0.00
2022-09-09T03:00:22.101Z,0.00
2022-09-09T03:01:22.165Z,0.00
2022-09-09T03:02:22.221Z,0.00
2022-09-09T03:03:22.067Z,0.00
2022-09-09T03:04:22.091Z,0.00
2022-09-09T03:05:22.045Z,0.00
2022-09-09T03:06:22.039Z,0.00
2022-09-09T03:07:22.017Z,0.00
2022-09-09T03:08:22.010Z,0.00
2022-09-09T03:09:22.036Z,0.00
2022-09-09T03:10:22.014Z,0.00
2022-09-09T03:11:21.975Z,0.00
2022-09-09T03:12:21.995Z,0.00
2022-09-09T03:13:21.973Z,0.00
2022-09-09T03:14:21.988Z,0.00
2022-09-09T03:15:21.957Z,0.00
2022-09-09T03:16:21.965Z,0.00
2022-09-09T03:17:21.923Z,0.00
2022-09-09T03:18:21.924Z,0.00
2022-09-09T03:19:21.913Z,0.00
2022-09-09T03:20:21.880Z,0.00
2022-09-09T03:21:21.882Z,0.00
2022-09-09T03:22:21.900Z,0.00
2022-09-09T03:23:21.870Z,0.00
2022-09-09T03:24:21.871Z,0.00
2022-09-09T03:25:21.833Z,0.00
2022-09-09T03:26:21.830Z,0.00
2022-09-09T03:27:21.810Z,0.00
2022-09-09T03:28:21.893Z,0.00
2022-09-09T03:29:21.819Z,0.00
2022-09-09T03:30:21.798Z,0.00
2022-09-09T03:31:21.846Z,0.00
2022-09-09T03:32:21.767Z,0.00
2022-09-09T03:33:21.774Z,0.00
2022-09-09T03:34:21.758Z,0.00
2022-09-09T03:35:21.741Z,0.00
2022-09-09T03:36:21.719Z,0.00
2022-09-09T03:37:21.726Z,0.00
2022-09-09T03:38:21.701Z,0.00
2022-09-09T03:39:21.695Z,0.00
2022-09-09T03:40:21.720Z,0.00
2022-09-09T03:41:21.666Z,0.00
2022-09-09T03:42:21.666Z,0.00
2022-09-09T03:43:21.638Z,0.00
2022-09-09T03:44:21.642Z,0.00
2022-09-09T03:45:21.656Z,0.00
2022-09-09T03:46:21.630Z,0.00
2022-09-09T03:47:21.607Z,0.00
2022-09-09T03:48:21.607Z,0.00
2022-09-09T03:49:21.634Z,0.00
2022-09-09T03:50:21.595Z,0.00
2022-09-09T03:51:21.563Z,0.00
2022-09-09T03:52:23.713Z,0.00
2022-09-09T03:53:21.552Z,0.00
2022-09-09T03:54:21.542Z,0.00
2022-09-09T03:55:21.589Z,0.00
2022-09-09T03:56:21.562Z,0.00
2022-09-09T03:57:21.521Z,0.00
2022-09-09T03:58:21.506Z,0.00
2022-09-09T03:59:21.485Z,0.00
2022-09-09T04:00:21.525Z,0.00
2022-09-09T04:01:21.570Z,0.00
2022-09-09T04:02:21.535Z,0.00
2022-09-09T04:03:25.836Z,0.00
2022-09-09T04:04:21.451Z,0.00
2022-09-09T04:05:21.421Z,0.00
2022-09-09T04:06:21.600Z,0.00
2022-09-09T04:07:21.410Z,0.00
2022-09-09T04:08:21.394Z,0.00
2022-09-09T04:09:21.399Z,0.00
2022-09-09T04:10:21.394Z,0.00
2022-09-09T04:11:21.370Z,0.00
2022-09-09T04:12:21.359Z,0.00
2022-09-09T04:13:21.334Z,0.00
2022-09-09T04:14:21.337Z,0.00
2022-09-09T04:15:21.316Z,0.00
2022-09-09T04:16:21.398Z,0.00
2022-09-09T04:17:21.323Z,0.00
2022-09-09T04:18:21.302Z,0.00
2022-09-09T04:19:21.296Z,0.00
2022-09-09T04:20:21.275Z,0.00
2022-09-09T04:21:21.272Z,0.00
2022-09-09T04:22:21.263Z,0.00
2022-09-09T04:23:21.232Z,0.00
2022-09-09T04:24:21.236Z,0.00
2022-09-09T04:25:21.172Z,0.00
2022-09-09T04:26:21.232Z,0.00
2022-09-09T04:27:21.195Z,0.00
2022-09-09T04:28:21.179Z,0.00
2022-09-09T04:29:21.137Z,0.00
2022-09-09T04:30:21.163Z,0.00
2022-09-09T04:31:21.368Z,0.00
2022-09-09T04:32:21.130Z,0.00
2022-09-09T04:33:21.078Z,0.00
2022-09-09T04:34:21.083Z,0.00
2022-09-09T04:35:21.076Z,0.00
2022-09-09T04:36:21.080Z,0.00
2022-09-09T04:37:21.043Z,0.00
2022-09-09T04:38:21.051Z,0.00
2022-09-09T04:39:21.032Z,0.00
2022-09-09T04:40:21.003Z,0.00
2022-09-09T04:41:21.010Z,0.00
2022-09-09T04:42:20.996Z,0.00
2022-09-09T04:43:20.967Z,0.00
2022-09-09T04:44:21.018Z,0.00
2022-09-09T04:45:21.026Z,0.00
2022-09-09T04:46:20.945Z,0.00
2022-09-09T04:47:21.027Z,0.00
2022-09-09T04:48:20.939Z,0.00
2022-09-09T04:49:21.028Z,0.00
2022-09-09T04:50:20.910Z,0.00
2022-09-09T04:51:20.884Z,0.00
2022-09-09T04:52:20.936Z,0.00
2022-09-09T04:53:20.868Z,0.00
2022-09-09T04:54:20.868Z,0.00
2022-09-09T04:55:20.844Z,0.00
2022-09-09T04:56:20.926Z,0.00
2022-09-09T04:57:20.823Z,0.00
2022-09-09T04:58:21.038Z,0.00
2022-09-09T04:59:20.817Z,0.00
2022-09-09T05:00:20.851Z,0.00
2022-09-09T05:01:20.887Z,0.00
2022-09-09T05:02:20.877Z,0.00
2022-09-09T05:03:20.917Z,0.00
2022-09-09T05:04:20.773Z,0.00
2022-09-09T05:05:20.774Z,0.00
2022-09-09T05:06:20.781Z,0.00
2022-09-09T05:07:20.774Z,0.00
2022-09-09T05:08:20.755Z,0.00
2022-09-09T05:09:20.701Z,0.00
2022-09-09T05:10:20.805Z,0.00
2022-09-09T05:11:20.677Z,0.00
2022-09-09T05:12:20.677Z,0.00
2022-09-09T05:13:20.671Z,0.00
2022-09-09T05:14:20.681Z,0.00
2022-09-09T05:15:20.623Z,0.00
2022-09-09T05:16:20.709Z,0.00
2022-09-09T05:17:20.628Z,0.00
2022-09-09T05:18:20.636Z,0.00
2022-09-09T05:19:20.610Z,0.00
2022-09-09T05:20:20.813Z,0.00
2022-09-09T05:21:20.576Z,0.00
2022-09-09T05:22:20.578Z,0.00
2022-09-09T05:23:20.598Z,5.62
2022-09-09T05:24:20.559Z,5.62
2022-09-09T05:25:20.611Z,5.62
2022-09-09T05:26:20.568Z,5.62
2022-09-09T05:27:20.521Z,5.62
2022-09-09T05:28:20.527Z,5.62
2022-09-09T05:29:20.526Z,5.62
2022-09-09T05:30:20.499Z,5.62
2022-09-09T05:31:20.526Z,5.62
2022-09-09T05:32:20.502Z,5.62
2022-09-09T05:33:20.487Z,5.62
2022-09-09T05:34:20.505Z,5.62
2022-09-09T05:35:20.519Z,5.62
2022-09-09T05:36:20.491Z,5.62
2022-09-09T05:37:20.434Z,5.62
2022-09-09T05:38:20.471Z,5.62
2022-09-09T05:39:20.444Z,5.62
2022-09-09T05:40:20.462Z,5.62
2022-09-09T05:41:20.495Z,5.62
2022-09-09T05:42:20.352Z,5.62
2022-09-09T05:43:20.394Z,5.62
2022-09-09T05:44:20.421Z,5.62
2022-09-09T05:45:20.382Z,11.25
2022-09-09T05:46:20.430Z,11.25
2022-09-09T05:47:20.397Z,11.25
2022-09-09T05:48:20.330Z,11.25
2022-09-09T05:49:20.370Z,11.25
2022-09-09T05:50:20.541Z,11.25
2022-09-09T05:51:20.316Z,11.25
2022-09-09T05:52:20.255Z,11.25
2022-09-09T05:53:20.245Z,11.25
2022-09-09T05:54:20.235Z,11.25
2022-09-09T05:55:20.571Z,11.25
2022-09-09T05:56:20.247Z,16.88
2022-09-09T05:57:20.249Z,16.88
2022-09-09T05:58:20.206Z,16.88
2022-09-09T05:59:20.187Z,16.88
2022-09-09T06:00:20.219Z,16.88
2022-09-09T06:01:20.181Z,16.88
2022-09-09T06:02:20.274Z,16.88
2022-09-09T06:03:20.250Z,16.88
2022-09-09T06:04:20.133Z,16.88
2022-09-09T06:05:20.207Z,16.88
2022-09-09T06:06:20.106Z,16.88
2022-09-09T06:07:20.171Z,16.88
2022-09-09T06:08:20.085Z,16.88
2022-09-09T06:09:20.077Z,16.88
2022-09-09T06:10:20.075Z,16.88
2022-09-09T06:11:20.086Z,22.50
2022-09-09T06:12:20.047Z,22.50
2022-09-09T06:13:20.041Z,22.50
2022-09-09T06:14:20.023Z,22.50
2022-09-09T06:15:20.073Z,22.50
2022-09-09T06:16:20.117Z,22.50
2022-09-09T06:17:20.026Z,28.12
2022-09-09T06:18:20.064Z,28.12
2022-09-09T06:19:19.978Z,28.12
2022-09-09T06:20:19.962Z,28.12
2022-09-09T06:21:19.990Z,28.12
2022-09-09T06:22:19.927Z,28.12
2022-09-09T06:23:19.940Z,28.12
2022-09-09T06:24:19.952Z,28.12
2022-09-09T06:25:19.930Z,28.12
2022-09-09T06:26:19.936Z,28.12
2022-09-09T06:27:19.906Z,28.12
2022-09-09T06:28:19.892Z,28.12
2022-09-09T06:29:19.924Z,28.12
2022-09-09T06:30:19.855Z,28.12
2022-09-09T06:31:19.901Z,28.12
2022-09-09T06:32:19.863Z,28.12
2022-09-09T06:33:19.840Z,28.12
2022-09-09T06:34:19.812Z,28.12
2022-09-09T06:35:19.812Z,28.12
2022-09-09T06:36:19.820Z,28.12
2022-09-09T06:37:19.791Z,28.12
2022-09-09T06:38:19.764Z,28.12
2022-09-09T06:39:19.771Z,28.12
2022-09-09T06:40:19.856Z,28.12
2022-09-09T06:41:19.745Z,28.12
2022-09-09T06:42:19.739Z,28.12
2022-09-09T06:43:19.760Z,28.12
2022-09-09T06:44:19.721Z,28.12
2022-09-09T06:45:19.699Z,33.75
2022-09-09T06:46:19.722Z,33.75
2022-09-09T06:47:19.706Z,33.75
2022-09-09T06:48:19.689Z,33.75
2022-09-09T06:49:19.673Z,33.75
2022-09-09T06:50:19.658Z,33.75
2022-09-09T06:51:19.650Z,33.75
2022-09-09T06:52:19.652Z,33.75
2022-09-09T06:53:19.640Z,33.75
2022-09-09T06:54:19.609Z,33.75
2022-09-09T06:55:19.668Z,33.75
2022-09-09T06:56:19.596Z,28.12
2022-09-09T06:58:19.605Z,28.12
2022-09-09T06:59:19.593Z,28.12
2022-09-09T07:00:19.541Z,28.12
2022-09-09T07:01:19.596Z,28.12
2022-09-09T07:02:19.590Z,28.12
2022-09-09T07:03:19.581Z,28.12
2022-09-09T07:04:19.689Z,28.12
2022-09-09T07:05:19.513Z,28.12
2022-09-09T07:06:19.512Z,33.75
2022-09-09T07:07:19.582Z,33.75
2022-09-09T07:08:19.462Z,39.38
2022-09-09T07:09:19.464Z,50.62
2022-09-09T07:10:19.635Z,56.25
2022-09-09T07:11:19.446Z,50.62
2022-09-09T07:12:19.441Z,61.88
2022-09-09T07:13:19.438Z,67.50
2022-09-09T07:14:19.445Z,67.50
2022-09-09T07:15:19.427Z,67.50
2022-09-09T07:16:19.494Z,73.12
2022-09-09T07:17:19.389Z,67.50
2022-09-09T07:18:19.383Z,67.50
2022-09-09T07:19:19.373Z,67.50
2022-09-09T07:20:19.345Z,67.50
2022-09-09T07:21:19.555Z,73.12
2022-09-09T07:22:19.307Z,61.88
2022-09-09T07:23:19.311Z,56.25
2022-09-09T07:24:19.287Z,45.00
2022-09-09T07:25:19.289Z,45.00
2022-09-09T07:26:19.263Z,50.62
2022-09-09T07:27:19.325Z,45.00
2022-09-09T07:28:19.271Z,50.62
2022-09-09T07:29:20.962Z,50.62
2022-09-09T07:30:23.098Z,50.62
2022-09-09T07:31:19.286Z,50.62
2022-09-09T07:32:19.201Z,50.62
2022-09-09T07:33:19.190Z,50.62
2022-09-09T07:34:19.185Z,50.62
2022-09-09T07:35:19.223Z,56.25
2022-09-09T07:36:19.180Z,56.25
2022-09-09T07:37:19.182Z,56.25
2022-09-09T07:38:19.245Z,39.38
2022-09-09T07:39:19.130Z,39.38
2022-09-09T07:40:19.170Z,39.38
2022-09-09T07:41:19.112Z,39.38
2022-09-09T07:42:19.098Z,45.00
2022-09-09T07:43:19.100Z,45.00
2022-09-09T07:44:19.091Z,45.00
2022-09-09T07:45:19.194Z,45.00
2022-09-09T07:46:19.098Z,45.00
2022-09-09T07:47:19.082Z,45.00
2022-09-09T07:48:19.030Z,50.62
2022-09-09T07:49:24.424Z,50.62
2022-09-09T07:50:19.487Z,50.62
2022-09-09T07:51:19.008Z,50.62
2022-09-09T07:52:20.242Z,50.62
2022-09-09T07:53:19.024Z,50.62
2022-09-09T07:54:18.995Z,50.62
2022-09-09T07:55:18.999Z,50.62
2022-09-09T07:56:18.958Z,56.25
2022-09-09T07:57:19.492Z,56.25
2022-09-09T07:58:18.927Z,61.88
2022-09-09T07:59:18.936Z,61.88
2022-09-09T08:00:18.972Z,61.88
2022-09-09T08:01:19.104Z,56.25
2022-09-09T08:02:18.902Z,56.25
2022-09-09T08:03:18.971Z,56.25
2022-09-09T08:04:18.862Z,56.25
2022-09-09T08:05:18.896Z,61.88
2022-09-09T08:06:18.871Z,56.25
2022-09-09T08:07:18.876Z,50.62
2022-09-09T08:08:18.833Z,56.25
2022-09-09T08:09:18.891Z,56.25
2022-09-09T08:10:18.806Z,61.88
2022-09-09T08:11:18.844Z,61.88
2022-09-09T08:12:18.804Z,67.50
2022-09-09T08:13:19.048Z,78.75
2022-09-09T08:14:18.786Z,73.12
2022-09-09T08:15:18.793Z,67.50
2022-09-09T08:16:18.795Z,56.25
2022-09-09T08:17:18.752Z,39.38
2022-09-09T08:18:18.742Z,33.75
2022-09-09T08:19:18.764Z,39.38
2022-09-09T08:20:18.770Z,33.75
2022-09-09T08:21:18.725Z,33.75
2022-09-09T08:22:18.820Z,39.38
2022-09-09T08:23:18.733Z,33.75
2022-09-09T08:24:18.678Z,45.00
2022-09-09T08:25:18.707Z,45.00
2022-09-09T08:26:18.649Z,45.00
2022-09-09T08:27:18.736Z,45.00
2022-09-09T08:28:18.639Z,45.00
2022-09-09T08:29:18.662Z,45.00
2022-09-09T08:30:18.649Z,45.00
2022-09-09T08:31:18.734Z,45.00
2022-09-09T08:32:18.598Z,45.00
2022-09-09T08:33:18.611Z,50.62
2022-09-09T08:34:18.573Z,50.62
2022-09-09T08:35:18.624Z,45.00
2022-09-09T08:36:18.545Z,45.00
2022-09-09T08:37:18.552Z,45.00
2022-09-09T08:38:18.538Z,45.00
2022-09-09T08:39:18.529Z,50.62
2022-09-09T08:40:18.580Z,50.62
2022-09-09T08:41:18.505Z,50.62
2022-09-09T08:42:18.497Z,50.62
2022-09-09T08:43:18.529Z,50.62
2022-09-09T08:44:18.462Z,50.62
2022-09-09T08:45:18.457Z,50.62
2022-09-09T08:46:18.480Z,50.62
2022-09-09T08:47:18.491Z,56.25
2022-09-09T08:48:18.463Z,56.25
2022-09-09T08:49:18.449Z,61.88
2022-09-09T08:50:18.401Z,101.25
2022-09-09T08:51:18.402Z,106.88
2022-09-09T08:52:18.399Z,101.25
2022-09-09T08:53:19.029Z,101.25
2022-09-09T08:54:30.201Z,61.88
2022-09-09T08:55:18.376Z,61.88
2022-09-09T08:56:18.381Z,61.88
2022-09-09T08:57:18.481Z,73.12
2022-09-09T08:58:18.350Z,78.75
2022-09-09T08:59:18.334Z,95.62
2022-09-09T09:00:18.370Z,95.62
2022-09-09T09:01:18.557Z,73.12
2022-09-09T09:02:18.353Z,90.00
2022-09-09T09:03:18.375Z,61.88
2022-09-09T09:04:18.369Z,73.12
2022-09-09T09:05:18.249Z,118.12
2022-09-09T09:06:18.281Z,78.75
2022-09-09T09:07:18.236Z,84.38
2022-09-09T09:08:18.235Z,101.25
2022-09-09T09:09:18.206Z,112.50
2022-09-09T09:10:39.832Z,106.88
2022-09-09T09:11:18.218Z,118.12
2022-09-09T09:12:18.210Z,73.12
2022-09-09T09:13:18.233Z,67.50
2022-09-09T09:14:18.177Z,84.38
2022-09-09T09:15:18.150Z,95.62
2022-09-09T09:16:18.156Z,61.88
2022-09-09T09:17:18.812Z,56.25
2022-09-09T09:18:18.137Z,56.25
2022-09-09T09:19:18.105Z,61.88
2022-09-09T09:20:18.094Z,61.88
2022-09-09T09:21:18.122Z,67.50
2022-09-09T09:22:18.099Z,73.12
2022-09-09T09:23:18.096Z,118.12
2022-09-09T09:24:21.228Z,118.12
2022-09-09T09:25:18.051Z,123.75
2022-09-09T09:26:18.060Z,123.75
2022-09-09T09:27:18.065Z,123.75
2022-09-09T09:28:18.039Z,123.75
2022-09-09T09:29:18.015Z,123.75
2022-09-09T09:30:26.773Z,129.38
2022-09-09T09:31:18.054Z,129.38
2022-09-09T09:32:18.052Z,140.62
2022-09-09T09:33:18.175Z,135.00
2022-09-09T09:34:17.965Z,135.00
2022-09-09T09:35:17.984Z,135.00
2022-09-09T09:36:17.948Z,140.62
2022-09-09T09:37:17.909Z,140.62
2022-09-09T09:40:17.911Z,146.25
2022-09-09T09:41:17.889Z,146.25
2022-09-09T09:42:20.290Z,146.25
2022-09-09T09:43:17.878Z,151.88
2022-09-09T09:44:17.865Z,146.25
2022-09-09T09:45:17.865Z,146.25
2022-09-09T09:46:18.381Z,151.88
2022-09-09T09:47:17.809Z,151.88
2022-09-09T09:48:17.796Z,123.75
2022-09-09T09:49:17.798Z,84.38
2022-09-09T09:50:17.797Z,84.38
2022-09-09T09:51:17.790Z,95.62
2022-09-09T09:52:17.754Z,140.62
2022-09-09T09:53:17.769Z,140.62
2022-09-09T09:54:17.836Z,84.38
2022-09-09T09:55:17.728Z,84.38
2022-09-09T09:56:17.729Z,84.38
2022-09-09T09:57:17.720Z,78.75
2022-09-09T09:58:18.678Z,101.25
2022-09-09T09:59:23.532Z,84.38
2022-09-09T10:00:17.840Z,129.38
2022-09-09T10:01:17.715Z,78.75
2022-09-09T10:02:17.674Z,84.38
2022-09-09T10:03:17.653Z,123.75
2022-09-09T10:04:17.817Z,84.38
2022-09-09T10:05:17.638Z,84.38
2022-09-09T10:06:17.613Z,123.75
2022-09-09T10:07:17.606Z,118.12
2022-09-09T10:08:17.645Z,129.38
2022-09-09T10:09:17.713Z,135.00
2022-09-09T10:10:17.630Z,112.50
2022-09-09T10:11:17.570Z,123.75
2022-09-09T10:12:17.546Z,123.75
2022-09-09T10:13:17.566Z,140.62
2022-09-09T10:14:17.554Z,140.62
2022-09-09T10:15:17.519Z,129.38
2022-09-09T10:16:17.547Z,84.38
2022-09-09T10:17:17.506Z,95.62
2022-09-09T10:18:17.493Z,123.75
2022-09-09T10:19:17.529Z,123.75
2022-09-09T10:20:17.491Z,135.00
2022-09-09T10:21:17.550Z,140.62
2022-09-09T10:22:17.463Z,135.00
2022-09-09T10:23:17.437Z,129.38
2022-09-09T10:24:17.445Z,112.50
2022-09-09T10:25:17.436Z,112.50
2022-09-09T10:26:17.410Z,135.00
2022-09-09T10:27:17.412Z,112.50
2022-09-09T10:28:17.407Z,118.12
2022-09-09T10:29:17.418Z,157.50
2022-09-09T10:30:17.408Z,168.75
2022-09-09T10:31:17.444Z,151.88
2022-09-09T10:32:17.378Z,157.50
2022-09-09T10:33:17.325Z,174.38
2022-09-09T10:34:17.353Z,129.38
2022-09-09T10:35:17.665Z,118.12
2022-09-09T10:36:17.301Z,123.75
2022-09-09T10:37:17.317Z,129.38
2022-09-09T10:38:17.308Z,106.88
2022-09-09T10:39:17.321Z,84.38
2022-09-09T10:40:17.379Z,67.50
2022-09-09T10:41:17.272Z,56.25
2022-09-09T10:42:17.279Z,50.62
2022-09-09T10:43:17.244Z,50.62
2022-09-09T10:44:17.235Z,50.62
2022-09-09T10:45:17.196Z,67.50
2022-09-09T10:46:17.243Z,90.00
2022-09-09T10:47:17.188Z,101.25
2022-09-09T10:48:17.176Z,101.25
2022-09-09T10:49:21.946Z,118.12
2022-09-09T10:50:17.164Z,129.38
2022-09-09T10:51:17.203Z,90.00
2022-09-09T10:52:17.197Z,95.62
2022-09-09T10:53:17.114Z,95.62
2022-09-09T10:54:17.143Z,106.88
2022-09-09T10:55:17.099Z,112.50
2022-09-09T10:56:17.125Z,118.12
2022-09-09T10:57:17.388Z,106.88
2022-09-09T10:58:17.146Z,112.50
2022-09-09T10:59:17.052Z,112.50
2022-09-09T11:00:17.073Z,123.75
2022-09-09T11:01:17.147Z,146.25
2022-09-09T11:02:17.071Z,658.12
2022-09-09T11:03:17.086Z,489.38
2022-09-09T11:04:17.117Z,168.75
2022-09-09T11:05:17.060Z,112.50
2022-09-09T11:06:17.105Z,191.25
2022-09-09T11:07:17.005Z,78.75
2022-09-09T11:08:17.089Z,84.38
2022-09-09T11:09:16.952Z,73.12
2022-09-09T11:10:16.965Z,78.75
2022-09-09T11:11:16.991Z,84.38
2022-09-09T11:12:16.940Z,95.62
2022-09-09T11:13:16.910Z,84.38
2022-09-09T11:14:16.928Z,90.00
2022-09-09T11:15:16.917Z,101.25
2022-09-09T11:16:16.949Z,112.50
2022-09-09T11:17:16.879Z,129.38
2022-09-09T11:18:16.876Z,135.00
2022-09-09T11:19:16.860Z,146.25
2022-09-09T11:20:16.855Z,163.12
2022-09-09T11:21:16.830Z,163.12
2022-09-09T11:22:16.869Z,466.88
2022-09-09T11:23:16.837Z,472.50
2022-09-09T11:24:17.598Z,511.88
2022-09-09T11:25:16.791Z,528.75
2022-09-09T11:26:16.816Z,562.50
2022-09-09T11:27:16.821Z,568.12
2022-09-09T11:28:16.759Z,511.88
2022-09-09T11:29:16.912Z,534.38
2022-09-09T11:30:27.469Z,551.25
2022-09-09T11:31:16.919Z,596.25
2022-09-09T11:32:16.773Z,708.75
2022-09-09T11:33:16.709Z,680.62
2022-09-09T11:34:16.709Z,573.75
2022-09-09T11:35:16.709Z,585.00
2022-09-09T11:36:16.701Z,556.88
2022-09-09T11:37:16.689Z,230.62
2022-09-09T11:38:16.667Z,253.12
2022-09-09T11:39:16.673Z,95.62
2022-09-09T11:40:16.662Z,95.62
2022-09-09T11:41:21.066Z,500.62
2022-09-09T11:42:16.682Z,118.12
2022-09-09T11:43:16.680Z,646.88
2022-09-09T11:44:16.593Z,635.62
2022-09-09T11:45:16.653Z,253.12
2022-09-09T11:46:16.738Z,140.62
2022-09-09T11:47:16.635Z,146.25
2022-09-09T11:48:16.569Z,225.00
2022-09-09T11:49:16.548Z,157.50
2022-09-09T11:50:16.584Z,123.75
2022-09-09T11:51:17.290Z,101.25
2022-09-09T11:52:16.560Z,73.12
2022-09-09T11:53:16.501Z,73.12
2022-09-09T11:54:16.570Z,50.62
2022-09-09T11:55:16.521Z,39.38
2022-09-09T11:56:16.497Z,33.75
2022-09-09T11:57:16.483Z,33.75
2022-09-09T11:58:16.449Z,33.75
2022-09-09T11:59:16.455Z,33.75
2022-09-09T12:00:16.569Z,39.38
2022-09-09T12:01:16.410Z,45.00
2022-09-09T12:02:16.514Z,56.25
2022-09-09T12:03:16.445Z,67.50
2022-09-09T12:04:21.287Z,78.75
2022-09-09T12:05:16.525Z,90.00
2022-09-09T12:06:16.361Z,95.62
2022-09-09T12:07:16.383Z,106.88
2022-09-09T12:08:16.375Z,129.38
2022-09-09T12:09:16.346Z,140.62
2022-09-09T12:10:16.351Z,135.00
2022-09-09T12:11:16.309Z,174.38
2022-09-09T12:12:16.624Z,174.38
2022-09-09T12:13:16.423Z,157.50
2022-09-09T12:14:16.318Z,123.75
2022-09-09T12:15:16.295Z,123.75
2022-09-09T12:16:16.352Z,112.50
2022-09-09T12:17:16.255Z,101.25
2022-09-09T12:18:16.316Z,106.88
2022-09-09T12:19:16.228Z,123.75
2022-09-09T12:20:16.295Z,135.00
2022-09-09T12:21:16.215Z,140.62
2022-09-09T12:22:16.549Z,157.50
2022-09-09T12:23:16.236Z,163.12
2022-09-09T12:24:16.224Z,146.25
2022-09-09T12:25:18.274Z,129.38
2022-09-09T12:26:16.736Z,106.88
2022-09-09T12:27:16.134Z,84.38
2022-09-09T12:28:16.288Z,73.12
2022-09-09T12:29:16.174Z,61.88
2022-09-09T12:30:16.139Z,56.25
2022-09-09T12:31:16.116Z,61.88
2022-09-09T12:32:16.112Z,67.50
2022-09-09T12:33:16.095Z,73.12
2022-09-09T12:34:16.141Z,84.38
2022-09-09T12:35:17.098Z,101.25
2022-09-09T12:36:16.051Z,118.12
2022-09-09T12:37:16.085Z,146.25
2022-09-09T12:38:16.040Z,163.12
2022-09-09T12:39:16.041Z,202.50
2022-09-09T12:40:16.043Z,495.00
2022-09-09T12:41:16.011Z,708.75
2022-09-09T12:42:16.064Z,213.75
2022-09-09T12:43:16.003Z,180.00
2022-09-09T12:44:15.967Z,590.62
2022-09-09T12:45:16.010Z,208.12
2022-09-09T12:46:16.085Z,185.62
2022-09-09T12:47:15.955Z,168.75
2022-09-09T12:48:15.970Z,219.38
2022-09-09T12:49:15.928Z,416.25
2022-09-09T12:50:15.925Z,348.75
2022-09-09T12:51:15.935Z,995.62
2022-09-09T12:52:15.896Z,945.00
2022-09-09T12:53:15.888Z,916.88
2022-09-09T12:54:15.890Z,219.38
2022-09-09T12:55:15.849Z,444.38
2022-09-09T12:56:15.843Z,871.88
2022-09-09T12:57:15.829Z,759.38
2022-09-09T12:58:15.872Z,326.25
2022-09-09T12:59:15.833Z,253.12
2022-09-09T13:00:16.776Z,123.75
2022-09-09T13:01:15.869Z,106.88